Time;durP1;ratioP1;P1;durP2;ratioP2;P2;SDS_P1;SDS_P2;PMS_P1;PMS_P2;Temp;Humidity;BMP_temperature;BMP_pressure;BME280_temperature;BME280_humidity;BME280_pressure;Samples;Min_cycle;Max_cycle;Signal;HPM_P1;HPM_P2
2022/12/01 00:03:51;;;;;;;;;;;;;;;;;;;;;
2022/12/01 00:21:48;;;;;;;42.73;20.30;;;7.30;99.90;;;;;;4911140;29;20429;-29
2022/12/01 00:36:58;;;;;;;40.13;20.03;;;7.20;99.90;;;;;;5006265;28;20489;-29
2022/12/01 00:48:22;;;;;;;49.73;21.47;;;7.30;99.90;;;;;;5066635;28;20398;-29
2022/12/01 00:56:22;;;;;;;;;;;;;;;;;;;;;
2022/12/01 01:15:11;;;;;;;;;;;;;;;;;;;;;
2022/12/01 01:33:38;;;;;;;;;;;;;;;;;;;;;
2022/12/01 01:48:18;;;;;;;35.87;19.77;;;7.00;99.90;;;;;;5005838;28;20600;-29
2022/12/01 01:52:25;;;;;;;36.03;20.93;;;7.30;99.90;;;;;;4947696;29;20787;-29
2022/12/01 01:55:58;;;;;;;38.40;22.63;;;7.30;99.90;;;;;;4890625;29;20490;-29
2022/12/01 02:07:48;;;;;;;;;;;;;;;;;;;;;
2022/12/01 02:15:44;;;;;;;;;;;;;;;;;;;;;
2022/12/01 02:19:15;;;;;;;42.23;21.60;;;7.30;99.90;;;;;;4963918;28;20426;-29
2022/12/01 02:26:45;;;;;;;35.03;19.60;;;7.20;99.90;;;;;;5065016;28;20778;-29
2022/12/01 02:34:23;;;;;;;;;;;;;;;;;;;;;
2022/12/01 02:37:59;;;;;;;41.53;21.13;;;7.30;99.90;;;;;;5024214;28;20452;-29
2022/12/01 02:41:20;;;;;;;;;;;;;;;;;;;;;
2022/12/01 03:00:17;;;;;;;;;;;;;;;;;;;;;
2022/12/01 03:22:10;;;;;;;33.33;20.20;;;7.00;99.90;;;;;;5068516;28;20795;-29
2022/12/01 03:25:26;;;;;;;;;;;;;;;;;;;;;
2022/12/01 03:28:55;;;;;;;32.87;19.37;;;7.20;99.90;;;;;;5086946;28;20410;-29
2022/12/01 03:32:25;;;;;;;34.57;18.77;;;7.00;99.90;;;;;;5047848;28;20488;-28
2022/12/01 03:51:54;;;;;;;36.93;20.37;;;7.20;99.90;;;;;;4968565;28;20756;-29
2022/12/01 04:53:23;;;;;;;;;;;;;;;;;;;;;
2022/12/01 05:12:38;;;;;;;;;;;;;;;;;;;;;
2022/12/01 05:46:55;;;;;;;;;;;;;;;;;;;;;
2022/12/01 07:03:15;;;;;;;;;;;;;;;;;;;;;
2022/12/01 07:40:53;;;;;;;;;;;;;;;;;;;;;
2022/12/01 08:18:23;;;;;;;;;;;;;;;;;;;;;
2022/12/01 08:25:58;;;;;;;;;;;;;;;;;;;;;
2022/12/01 10:35:58;;;;;;;;;;;;;;;;;;;;;
2022/12/01 13:18:30;;;;;;;;;;;;;;;;;;;;;
2022/12/01 14:49:11;;;;;;;;;;;;;;;;;;;;;
2022/12/01 15:07:56;;;;;;;;;;;;;;;;;;;;;
2022/12/01 15:42:22;;;;;;;;;;;;;;;;;;;;;
2022/12/01 16:00:56;;;;;;;49.50;29.80;;;6.80;99.90;;;;;;5069973;28;20462;-29
2022/12/01 16:58:48;;;;;;;;;;;;;;;;;;;;;
2022/12/01 17:14:03;;;;;;;;;;;;;;;;;;;;;
2022/12/01 17:40:56;;;;;;;48.90;28.93;;;6.60;99.90;;;;;;4834926;29;20425;-28
2022/12/01 17:59:52;;;;;;;43.13;24.63;;;6.50;99.90;;;;;;4916824;29;20553;-29
2022/12/01 18:07:05;;;;;;;44.60;25.40;;;6.50;99.90;;;;;;4928231;29;20413;-29
2022/12/01 18:46:05;;;;;;;37.10;20.83;;;6.20;99.90;;;;;;4918133;29;20924;-29
2022/12/01 19:00:41;;;;;;;;;;;;;;;;;;;;;
2022/12/01 19:07:09;;;;;;;32.50;19.30;;;6.10;99.90;;;;;;5057092;28;20438;-29
2022/12/01 19:09:35;;;;;;;33.47;18.80;;;6.00;99.90;;;;;;5078192;28;20526;-29
2022/12/01 19:12:00;;;;;;;32.13;17.00;;;6.00;99.90;;;;;;5087819;28;20218;-29
2022/12/01 19:14:27;;;;;;;27.87;17.03;;;6.10;99.90;;;;;;5087356;28;20725;-29
2022/12/01 19:16:54;;;;;;;24.90;15.37;;;6.00;99.90;;;;;;5079957;28;20246;-29
2022/12/01 19:19:20;;;;;;;26.37;14.53;;;6.00;99.90;;;;;;5086447;28;20566;-28
2022/12/01 19:21:45;;;;;;;28.73;15.37;;;5.90;99.90;;;;;;5091677;28;20448;-29
2022/12/01 19:24:11;;;;;;;27.83;16.00;;;5.90;99.90;;;;;;5091321;28;20658;-29
2022/12/01 19:26:37;;;;;;;28.53;17.13;;;5.90;99.90;;;;;;5091618;28;20188;-29
2022/12/01 19:29:03;;;;;;;24.20;15.33;;;6.00;99.90;;;;;;5090751;28;20424;-29
2022/12/01 19:31:28;;;;;;;27.33;16.10;;;5.80;99.90;;;;;;5091208;28;20203;-29
2022/12/01 19:33:54;;;;;;;24.40;15.33;;;5.80;99.90;;;;;;5105724;28;20600;-29
2022/12/01 19:36:25;;;;;;;25.43;16.33;;;6.00;99.90;;;;;;5091401;28;20204;-29
2022/12/01 19:38:52;;;;;;;25.73;15.13;;;5.90;99.90;;;;;;5091139;28;20180;-28
2022/12/01 19:41:19;;;;;;;26.53;15.90;;;6.00;99.90;;;;;;5090062;28;20410;-29
2022/12/01 19:43:45;;;;;;;29.37;17.00;;;5.80;99.90;;;;;;5090822;28;20410;-29
2022/12/01 19:46:14;;;;;;;30.87;18.40;;;6.00;99.90;;;;;;5091409;28;20421;-28
2022/12/01 19:48:40;;;;;;;28.60;15.40;;;6.00;99.90;;;;;;5090605;28;20505;-29
2022/12/01 19:51:13;;;;;;;22.73;14.10;;;6.00;99.90;;;;;;5091267;28;20943;-29
2022/12/01 19:53:39;;;;;;;25.83;15.20;;;5.90;99.90;;;;;;5090553;28;20608;-29
2022/12/01 19:56:05;;;;;;;27.90;15.47;;;5.90;99.90;;;;;;5090679;28;20557;-29
2022/12/01 19:58:32;;;;;;;25.83;14.43;;;5.90;99.90;;;;;;5090738;28;20462;-29
2022/12/01 20:01:05;;;;;;;25.10;16.70;;;5.80;99.90;;;;;;5091238;28;20179;-29
2022/12/01 20:03:32;;;;;;;24.40;15.43;;;5.80;99.90;;;;;;5091072;28;20414;-28
2022/12/01 20:06:02;;;;;;;32.90;16.13;;;5.90;99.90;;;;;;5090913;28;20406;-29
2022/12/01 20:08:28;;;;;;;29.40;16.67;;;5.70;99.90;;;;;;5090664;28;20775;-29
2022/12/01 20:10:54;;;;;;;31.37;17.70;;;5.90;99.90;;;;;;5091023;28;20418;-29
2022/12/01 20:13:19;;;;;;;29.97;16.60;;;5.60;99.90;;;;;;5090692;28;20181;-29
2022/12/01 20:15:45;;;;;;;27.40;16.10;;;5.70;99.90;;;;;;5090384;28;20732;-29
2022/12/01 20:18:13;;;;;;;27.17;16.70;;;5.70;99.90;;;;;;5089552;28;20184;-29
2022/12/01 20:20:39;;;;;;;33.50;18.90;;;5.90;99.90;;;;;;5090142;28;20173;-31
2022/12/01 20:23:04;;;;;;;27.60;16.17;;;5.90;99.90;;;;;;5089165;28;20403;-29
2022/12/01 20:25:31;;;;;;;28.47;15.87;;;5.90;99.90;;;;;;5070077;28;20997;-29
2022/12/01 20:27:57;;;;;;;27.40;16.10;;;5.90;99.90;;;;;;5070438;28;20185;-29
2022/12/01 20:30:22;;;;;;;30.10;18.60;;;5.80;99.90;;;;;;5069661;28;20411;-29
2022/12/01 20:32:48;;;;;;;32.20;17.60;;;5.90;99.90;;;;;;5069766;28;20246;-29
2022/12/01 20:35:14;;;;;;;31.00;18.50;;;5.90;99.90;;;;;;5069285;28;20181;-29
2022/12/01 20:37:40;;;;;;;35.63;18.90;;;5.80;99.90;;;;;;5069733;28;20577;-29
2022/12/01 20:40:06;;;;;;;28.37;16.33;;;5.80;99.90;;;;;;5069750;28;20514;-29
2022/12/01 20:42:32;;;;;;;35.23;17.63;;;5.90;99.90;;;;;;5069699;28;20826;-29
2022/12/01 20:44:58;;;;;;;32.37;19.43;;;5.80;99.90;;;;;;5069869;28;20567;-29
2022/12/01 20:47:23;;;;;;;34.47;17.93;;;5.80;99.90;;;;;;5069949;28;20189;-28
2022/12/01 20:49:49;;;;;;;33.20;18.30;;;5.90;99.90;;;;;;5069536;28;20185;-29
2022/12/01 20:52:15;;;;;;;33.70;18.50;;;5.70;99.90;;;;;;5069973;28;20667;-29
2022/12/01 20:54:41;;;;;;;29.73;18.73;;;5.60;99.90;;;;;;5069416;28;20196;-29
2022/12/01 20:57:07;;;;;;;32.37;19.63;;;5.80;99.90;;;;;;5069583;28;20208;-29
2022/12/01 20:59:34;;;;;;;29.83;17.87;;;5.70;99.90;;;;;;5069233;28;20411;-29
2022/12/01 21:02:00;;;;;;;34.73;21.10;;;5.60;99.90;;;;;;5069508;28;20415;-29
2022/12/01 21:04:25;;;;;;;32.40;19.43;;;5.50;99.90;;;;;;5067670;28;20419;-29
2022/12/01 21:06:54;;;;;;;33.77;19.80;;;5.70;99.90;;;;;;5069362;28;20200;-29
2022/12/01 21:09:20;;;;;;;37.97;20.70;;;5.90;99.90;;;;;;5067463;28;20280;-28
2022/12/01 21:14:41;;;;;;;33.90;20.37;;;5.90;99.90;;;;;;5068924;28;20172;-29
2022/12/01 21:17:28;;;;;;;37.17;22.23;;;5.70;99.90;;;;;;5082436;28;20481;-29
2022/12/01 21:20:31;;;;;;;39.53;21.67;;;5.70;99.90;;;;;;5089078;28;20781;-29
2022/12/01 21:23:10;;;;;;;37.13;22.10;;;5.60;99.90;;;;;;5089048;28;20415;-29
2022/12/01 21:25:38;;;;;;;35.77;20.43;;;5.60;99.90;;;;;;5067580;28;20413;-29
2022/12/01 21:28:15;;;;;;;38.20;22.63;;;5.70;99.90;;;;;;5088073;28;21090;-29
2022/12/01 21:30:40;;;;;;;38.50;22.50;;;5.70;99.90;;;;;;5075771;28;20422;-29
2022/12/01 21:33:18;;;;;;;38.47;24.13;;;5.70;99.90;;;;;;5088781;28;20422;-29
2022/12/01 21:35:44;;;;;;;35.67;21.77;;;5.70;99.90;;;;;;5088450;28;20229;-29
2022/12/01 21:38:11;;;;;;;37.73;22.20;;;5.80;99.90;;;;;;5088865;28;20415;-29
2022/12/01 21:40:42;;;;;;;36.07;22.03;;;5.80;99.90;;;;;;5088374;28;20176;-28
2022/12/01 21:43:22;;;;;;;39.87;23.60;;;5.80;99.90;;;;;;5087865;28;20427;-29
2022/12/01 21:45:56;;;;;;;38.10;22.47;;;5.60;99.90;;;;;;5088595;28;20463;-29
2022/12/01 21:48:22;;;;;;;39.77;23.77;;;5.70;99.90;;;;;;5088670;28;20451;-29
2022/12/01 21:50:59;;;;;;;38.03;22.03;;;5.60;99.90;;;;;;5088385;28;20441;-29
2022/12/01 21:53:31;;;;;;;37.00;21.30;;;5.60;99.90;;;;;;5088355;28;20433;-29
2022/12/01 21:55:57;;;;;;;40.20;22.63;;;5.70;99.90;;;;;;5088661;28;20454;-29
2022/12/01 21:58:26;;;;;;;40.80;23.63;;;5.40;99.90;;;;;;5088320;28;20422;-28
2022/12/01 22:00:54;;;;;;;39.70;22.70;;;5.60;99.90;;;;;;5088291;28;20180;-29
2022/12/01 22:03:25;;;;;;;38.97;23.67;;;5.50;99.90;;;;;;5088282;28;20483;-29
2022/12/01 22:06:12;;;;;;;42.53;23.27;;;5.40;99.90;;;;;;5088592;28;20418;-29
2022/12/01 22:08:43;;;;;;;45.87;24.07;;;5.70;99.90;;;;;;5088057;28;20526;-28
2022/12/01 22:11:17;;;;;;;43.00;23.20;;;5.60;99.90;;;;;;5087032;28;20414;-29
2022/12/01 22:14:03;;;;;;;37.00;21.00;;;5.40;99.90;;;;;;5087842;28;20609;-29
2022/12/01 22:16:39;;;;;;;38.13;21.43;;;5.50;99.90;;;;;;5088484;28;20473;-29
2022/12/01 22:19:13;;;;;;;40.13;22.83;;;5.60;99.90;;;;;;5087830;28;20429;-29
2022/12/01 22:21:51;;;;;;;38.60;22.80;;;5.70;99.90;;;;;;5088271;28;20512;-29
2022/12/01 22:24:21;;;;;;;32.87;19.77;;;5.60;99.90;;;;;;5087810;28;20470;-29
2022/12/01 22:26:51;;;;;;;40.10;22.03;;;5.30;99.90;;;;;;5088391;28;20419;-29
2022/12/01 22:29:20;;;;;;;37.00;21.83;;;5.60;99.90;;;;;;5103206;28;20434;-29
2022/12/01 22:31:46;;;;;;;40.77;22.07;;;5.40;99.90;;;;;;5088133;28;20421;-29
2022/12/01 22:34:14;;;;;;;37.43;21.40;;;5.30;99.90;;;;;;5085973;28;20929;-29
2022/12/01 22:36:40;;;;;;;40.57;21.33;;;5.50;99.90;;;;;;5088208;28;20491;-29
2022/12/01 22:39:32;;;;;;;35.23;21.67;;;5.60;99.90;;;;;;5087420;28;20466;-29
2022/12/01 22:42:08;;;;;;;43.97;22.67;;;5.60;99.90;;;;;;5085801;28;20208;-29
2022/12/01 22:44:34;;;;;;;37.27;20.77;;;5.50;99.90;;;;;;5087445;28;20757;-29
2022/12/01 22:47:02;;;;;;;42.13;23.20;;;5.40;99.90;;;;;;5086309;28;20525;-29
2022/12/01 22:49:29;;;;;;;39.13;23.13;;;5.40;99.90;;;;;;5087516;28;20218;-29
2022/12/01 22:51:57;;;;;;;41.23;24.53;;;5.30;99.90;;;;;;5087927;28;20429;-29
2022/12/01 22:54:43;;;;;;;40.40;21.03;;;5.20;99.90;;;;;;5085117;28;20422;-29
2022/12/01 22:57:20;;;;;;;43.40;23.47;;;5.40;99.90;;;;;;5087859;28;20453;-29
2022/12/01 22:59:46;;;;;;;40.90;23.40;;;5.40;99.90;;;;;;5087127;28;20410;-29
2022/12/01 23:02:16;;;;;;;41.93;23.30;;;5.40;99.90;;;;;;5087566;28;20428;-28
2022/12/01 23:04:43;;;;;;;45.07;23.20;;;5.20;99.90;;;;;;5087445;28;20475;-29
2022/12/01 23:07:33;;;;;;;44.00;20.83;;;5.10;99.90;;;;;;5087671;28;20509;-28
2022/12/01 23:10:20;;;;;;;44.13;24.43;;;5.40;99.90;;;;;;5087173;28;20418;-29
2022/12/01 23:12:49;;;;;;;44.70;23.00;;;5.10;99.90;;;;;;5087477;28;20414;-28
2022/12/01 23:15:26;;;;;;;42.50;24.50;;;5.40;99.90;;;;;;5087425;28;20426;-28
2022/12/01 23:17:52;;;;;;;46.00;22.77;;;5.40;99.90;;;;;;5087625;28;20430;-28
2022/12/01 23:20:34;;;;;;;40.70;23.57;;;5.20;99.90;;;;;;5087046;28;20424;-28
2022/12/01 23:23:13;;;;;;;43.40;22.20;;;5.40;99.90;;;;;;5087343;28;20809;-28
2022/12/01 23:25:40;;;;;;;45.17;24.20;;;5.10;99.90;;;;;;5067502;28;20410;-28
2022/12/01 23:28:09;;;;;;;37.27;21.90;;;5.40;99.90;;;;;;5066113;28;20814;-28
2022/12/01 23:30:39;;;;;;;37.43;20.80;;;5.30;99.90;;;;;;5066866;28;20764;-28
2022/12/01 23:33:09;;;;;;;36.33;19.70;;;5.30;99.90;;;;;;5066918;28;20423;-29
2022/12/01 23:35:43;;;;;;;31.00;19.23;;;5.30;99.90;;;;;;5066495;28;20831;-28
2022/12/01 23:38:15;;;;;;;29.97;17.53;;;5.10;99.90;;;;;;5067238;28;20406;-28
2022/12/01 23:40:41;;;;;;;28.97;15.80;;;5.00;99.90;;;;;;5078336;28;20909;-28
2022/12/01 23:43:23;;;;;;;28.03;17.53;;;5.20;99.90;;;;;;5086431;28;20773;-28
2022/12/01 23:46:18;;;;;;;30.87;17.67;;;5.40;99.90;;;;;;5087302;28;20425;-29
2022/12/01 23:48:48;;;;;;;30.40;18.40;;;5.10;99.90;;;;;;5075809;28;20433;-29
2022/12/01 23:51:52;;;;;;;30.43;17.30;;;5.20;99.90;;;;;;5087307;28;20929;-28
2022/12/01 23:54:19;;;;;;;29.60;16.60;;;5.00;99.90;;;;;;5003947;28;20641;-28
2022/12/01 23:56:50;;;;;;;29.20;18.57;;;5.10;99.90;;;;;;5070651;28;20458;-29
2022/12/01 23:59:18;;;;;;;31.00;17.57;;;5.20;99.90;;;;;;5102235;28;20436;-28
